createdAt,value
2022-09-06T00:00:18.902Z,19.00
2022-09-06T00:02:45.727Z,19.00
2022-09-06T00:05:13.736Z,19.00
2022-09-06T00:07:41.045Z,19.00
2022-09-06T00:10:10.353Z,18.90
2022-09-06T00:12:37.794Z,18.90
2022-09-06T00:15:05.916Z,18.90
2022-09-06T00:17:33.984Z,18.90
2022-09-06T00:20:00.876Z,18.90
2022-09-06T00:22:27.621Z,18.90
2022-09-06T00:24:54.357Z,19.00
2022-09-06T00:27:21.168Z,19.00
2022-09-06T00:29:48.228Z,19.00
2022-09-06T00:32:15.139Z,19.10
2022-09-06T00:34:42.204Z,19.10
2022-09-06T00:37:08.963Z,19.00
2022-09-06T00:39:35.776Z,19.10
2022-09-06T00:42:02.517Z,19.10
2022-09-06T00:44:29.230Z,19.00
2022-09-06T00:46:56.152Z,19.10
2022-09-06T00:49:28.066Z,19.00
2022-09-06T00:52:04.856Z,19.00
2022-09-06T00:54:32.002Z,18.90
2022-09-06T00:56:59.274Z,18.90
2022-09-06T00:59:29.626Z,18.90
2022-09-06T01:01:56.649Z,18.90
2022-09-06T01:04:24.209Z,18.80
2022-09-06T01:06:50.873Z,18.80
2022-09-06T01:09:46.135Z,18.70
2022-09-06T01:12:31.639Z,18.70
2022-09-06T01:15:25.992Z,18.60
2022-09-06T01:18:04.224Z,18.50
2022-09-06T01:20:57.281Z,18.40
2022-09-06T01:24:04.344Z,18.40
2022-09-06T01:27:02.101Z,18.40
2022-09-06T01:29:39.461Z,18.30
2022-09-06T01:32:22.145Z,18.30
2022-09-06T01:34:55.981Z,18.20
2022-09-06T01:37:23.088Z,18.10
2022-09-06T01:39:50.094Z,18.00
2022-09-06T01:42:22.240Z,17.90
2022-09-06T01:45:01.423Z,17.80
2022-09-06T01:48:10.832Z,17.70
2022-09-06T01:51:02.995Z,17.60
2022-09-06T01:53:39.240Z,17.60
2022-09-06T01:56:47.467Z,17.50
2022-09-06T01:59:19.838Z,17.50
2022-09-06T02:02:06.701Z,17.40
2022-09-06T02:04:54.429Z,17.30
2022-09-06T02:07:25.903Z,17.20
2022-09-06T02:13:43.324Z,17.20
2022-09-06T02:16:13.115Z,17.10
2022-09-06T02:18:57.151Z,17.10
2022-09-06T02:21:30.393Z,17.10
2022-09-06T02:24:30.304Z,17.10
2022-09-06T02:26:57.701Z,17.10
2022-09-06T02:29:24.668Z,17.10
2022-09-06T02:31:57.344Z,17.20
2022-09-06T02:34:24.102Z,17.10
2022-09-06T02:36:50.853Z,17.10
2022-09-06T02:39:17.648Z,17.10
2022-09-06T02:41:46.566Z,17.10
2022-09-06T02:44:13.546Z,17.10
2022-09-06T02:46:40.527Z,17.10
2022-09-06T02:49:07.333Z,17.20
2022-09-06T02:51:40.598Z,17.20
2022-09-06T02:54:07.788Z,17.20
2022-09-06T02:56:36.483Z,17.20
2022-09-06T02:59:05.567Z,17.10
2022-09-06T03:01:33.177Z,17.10
2022-09-06T03:04:00.492Z,17.00
2022-09-06T03:06:27.455Z,17.10
2022-09-06T03:08:54.266Z,17.10
2022-09-06T03:11:20.978Z,17.10
2022-09-06T03:13:51.407Z,17.00
2022-09-06T03:16:19.251Z,17.00
2022-09-06T03:18:46.982Z,16.90
2022-09-06T03:21:14.571Z,16.90
2022-09-06T03:23:41.418Z,16.80
2022-09-06T03:26:08.493Z,16.80
2022-09-06T03:28:35.261Z,16.70
2022-09-06T03:31:02.026Z,16.70
2022-09-06T03:33:28.818Z,16.60
2022-09-06T03:36:01.246Z,16.60
2022-09-06T03:38:28.946Z,16.60
2022-09-06T03:40:56.274Z,16.50
2022-09-06T03:43:24.780Z,16.50
2022-09-06T03:45:53.916Z,16.40
2022-09-06T03:48:22.748Z,16.40
2022-09-06T03:50:54.168Z,16.40
2022-09-06T03:53:22.290Z,16.40
2022-09-06T03:55:53.552Z,16.30
2022-09-06T03:58:22.278Z,16.30
2022-09-06T04:00:49.334Z,16.30
2022-09-06T04:03:19.358Z,16.30
2022-09-06T04:05:46.835Z,16.30
2022-09-06T04:08:13.716Z,16.30
2022-09-06T04:10:41.005Z,16.30
2022-09-06T04:13:07.722Z,16.30
2022-09-06T04:15:34.489Z,16.30
2022-09-06T04:18:03.900Z,16.30
2022-09-06T04:20:32.766Z,16.20
2022-09-06T04:22:59.647Z,16.20
2022-09-06T04:25:26.458Z,16.20
2022-09-06T04:27:53.183Z,16.20
2022-09-06T04:30:19.902Z,16.20
2022-09-06T04:32:46.580Z,16.30
2022-09-06T04:35:13.798Z,16.30
2022-09-06T04:37:40.696Z,16.30
2022-09-06T04:40:08.026Z,16.30
2022-09-06T04:42:34.937Z,16.30
2022-09-06T04:45:01.705Z,16.30
2022-09-06T04:47:28.629Z,16.20
2022-09-06T04:49:55.559Z,16.20
2022-09-06T04:52:22.221Z,16.10
2022-09-06T04:54:49.429Z,16.10
2022-09-06T04:57:16.149Z,16.10
2022-09-06T04:59:42.857Z,16.00
2022-09-06T05:02:09.571Z,16.00
2022-09-06T05:04:36.420Z,16.00
2022-09-06T05:07:05.471Z,16.00
2022-09-06T05:09:33.272Z,16.00
2022-09-06T05:12:00.639Z,15.90
2022-09-06T05:14:28.551Z,15.90
2022-09-06T05:16:55.681Z,15.90
2022-09-06T05:19:22.867Z,15.90
2022-09-06T05:21:51.571Z,15.90
2022-09-06T05:24:18.635Z,15.90
2022-09-06T05:26:45.462Z,15.90
2022-09-06T05:29:12.419Z,15.90
2022-09-06T05:31:39.206Z,15.90
2022-09-06T05:34:06.036Z,16.00
2022-09-06T05:36:33.012Z,16.00
2022-09-06T05:38:59.964Z,16.10
2022-09-06T05:41:27.185Z,16.10
2022-09-06T05:43:54.124Z,16.10
2022-09-06T05:46:21.250Z,16.10
2022-09-06T05:48:55.440Z,16.10
2022-09-06T05:51:22.172Z,16.10
2022-09-06T05:53:49.137Z,16.10
2022-09-06T05:56:17.025Z,16.10
2022-09-06T05:58:43.984Z,16.10
2022-09-06T06:01:19.045Z,16.10
2022-09-06T06:04:03.486Z,16.20
2022-09-06T06:06:32.149Z,16.10
2022-09-06T06:08:59.501Z,16.20
2022-09-06T06:11:27.149Z,16.30
2022-09-06T06:13:54.140Z,16.30
2022-09-06T06:16:22.686Z,16.40
2022-09-06T06:18:52.167Z,16.50
2022-09-06T06:21:22.546Z,16.60
2022-09-06T06:23:54.322Z,16.70
2022-09-06T06:26:21.739Z,16.80
2022-09-06T06:28:49.170Z,17.00
2022-09-06T06:31:16.240Z,17.20
2022-09-06T06:33:43.380Z,17.40
2022-09-06T06:36:15.936Z,17.60
2022-09-06T06:38:46.339Z,17.80
2022-09-06T06:41:15.586Z,18.00
2022-09-06T06:43:42.374Z,18.20
2022-09-06T06:46:15.185Z,18.40
2022-09-06T06:48:43.780Z,18.50
2022-09-06T06:51:12.772Z,18.40
2022-09-06T06:53:39.754Z,18.40
2022-09-06T06:56:27.353Z,18.20
2022-09-06T06:58:57.652Z,18.20
2022-09-06T07:01:26.326Z,18.10
2022-09-06T07:03:54.346Z,18.20
2022-09-06T07:09:09.166Z,18.30
2022-09-06T07:11:35.810Z,18.40
2022-09-06T07:14:02.723Z,18.60
2022-09-06T07:16:30.053Z,18.70
2022-09-06T07:18:56.811Z,19.00
2022-09-06T07:21:42.191Z,19.40
2022-09-06T07:24:09.815Z,19.80
2022-09-06T07:26:39.547Z,20.10
2022-09-06T07:29:07.567Z,20.20
2022-09-06T07:34:22.285Z,20.30
2022-09-06T07:36:53.338Z,20.50
2022-09-06T07:39:20.196Z,20.70
2022-09-06T07:41:47.074Z,21.10
2022-09-06T07:44:13.882Z,21.50
2022-09-06T07:46:40.722Z,22.00
2022-09-06T07:49:07.671Z,22.10
2022-09-06T07:51:34.451Z,21.90
2022-09-06T07:54:26.343Z,21.90
2022-09-06T07:56:49.174Z,22.30
2022-09-06T07:59:16.364Z,22.20
2022-09-06T08:01:43.229Z,22.40
2022-09-06T08:04:15.541Z,23.50
2022-09-06T08:09:35.216Z,25.50
2022-09-06T08:12:06.801Z,25.60
2022-09-06T08:14:34.436Z,25.70
2022-09-06T08:17:01.773Z,25.90
2022-09-06T08:19:28.589Z,26.40
2022-09-06T08:21:56.055Z,27.30
2022-09-06T08:24:23.342Z,28.50
2022-09-06T08:26:50.287Z,29.30
2022-09-06T08:29:17.452Z,29.80
2022-09-06T08:31:45.437Z,30.10
2022-09-06T08:34:12.772Z,29.90
2022-09-06T08:36:39.903Z,29.50
2022-09-06T08:39:09.873Z,29.20
2022-09-06T08:41:54.677Z,29.60
2022-09-06T08:47:19.617Z,30.90
2022-09-06T08:49:57.399Z,31.40
2022-09-06T08:52:35.310Z,31.80
2022-09-06T08:55:17.167Z,31.90
2022-09-06T08:58:09.014Z,31.50
2022-09-06T09:00:38.134Z,31.30
2022-09-06T09:03:16.520Z,31.50
2022-09-06T09:05:46.942Z,32.00
2022-09-06T09:08:59.098Z,32.40
2022-09-06T09:11:26.185Z,32.50
2022-09-06T09:14:15.769Z,32.50
2022-09-06T09:16:43.135Z,32.80
2022-09-06T09:19:10.085Z,32.60
2022-09-06T09:21:38.767Z,32.50
2022-09-06T09:24:08.485Z,32.70
2022-09-06T09:26:51.930Z,32.80
2022-09-06T09:29:20.852Z,32.90
2022-09-06T09:31:54.123Z,32.80
2022-09-06T09:34:36.808Z,32.50
2022-09-06T09:40:27.504Z,31.20
2022-09-06T09:42:57.349Z,30.70
2022-09-06T09:45:30.003Z,30.10
2022-09-06T09:47:57.500Z,29.20
2022-09-06T09:50:31.112Z,28.60
2022-09-06T09:53:11.824Z,28.10
2022-09-06T09:55:39.971Z,27.50
2022-09-06T09:58:17.369Z,27.10
2022-09-06T10:00:44.318Z,26.60
2022-09-06T10:03:19.865Z,26.10
2022-09-06T10:06:02.777Z,25.70
2022-09-06T10:08:32.796Z,25.40
2022-09-06T10:10:59.694Z,25.10
2022-09-06T10:13:29.697Z,24.80
2022-09-06T10:16:03.806Z,24.60
2022-09-06T10:18:44.013Z,24.50
2022-09-06T10:21:12.850Z,24.90
2022-09-06T10:24:28.889Z,26.10
2022-09-06T10:26:58.958Z,28.30
2022-09-06T10:30:04.578Z,29.90
2022-09-06T10:33:18.723Z,29.80
2022-09-06T10:35:45.703Z,28.80
2022-09-06T10:38:18.804Z,27.90
2022-09-06T10:41:09.698Z,27.30
2022-09-06T10:43:59.340Z,27.20
2022-09-06T10:46:28.509Z,26.90
2022-09-06T10:48:55.367Z,26.40
2022-09-06T10:51:57.536Z,25.80
2022-09-06T10:54:25.029Z,25.20
2022-09-06T10:57:02.508Z,24.80
2022-09-06T10:59:36.706Z,24.50
2022-09-06T11:02:35.932Z,24.20
2022-09-06T11:10:51.598Z,24.00
2022-09-06T11:13:19.823Z,24.00
2022-09-06T11:16:10.959Z,24.00
2022-09-06T11:19:05.348Z,24.10
2022-09-06T11:21:50.694Z,24.10
2022-09-06T11:24:32.585Z,24.00
2022-09-06T11:27:07.751Z,23.90
2022-09-06T11:29:39.996Z,23.90
2022-09-06T11:32:29.487Z,23.90
2022-09-06T11:35:02.913Z,23.80
2022-09-06T11:37:36.312Z,23.90
2022-09-06T11:40:29.424Z,23.90
2022-09-06T11:42:58.669Z,24.00
2022-09-06T11:45:45.143Z,24.10
2022-09-06T11:48:24.078Z,24.20
2022-09-06T11:50:54.007Z,24.30
2022-09-06T11:53:31.058Z,24.50
2022-09-06T11:56:00.622Z,24.50
2022-09-06T11:58:39.901Z,24.50
2022-09-06T12:01:12.929Z,24.50
2022-09-06T12:04:09.067Z,24.70
2022-09-06T12:07:12.315Z,25.30
2022-09-06T12:09:42.670Z,27.30
2022-09-06T12:12:13.601Z,28.30
2022-09-06T12:14:47.786Z,29.50
2022-09-06T12:17:14.498Z,30.80
2022-09-06T12:19:56.426Z,31.60
2022-09-06T12:22:41.093Z,31.10
2022-09-06T12:25:35.782Z,30.50
2022-09-06T12:28:09.865Z,30.70
2022-09-06T12:30:37.328Z,30.80
2022-09-06T12:33:25.771Z,30.30
2022-09-06T12:38:25.210Z,28.90
2022-09-06T12:40:58.324Z,29.30
2022-09-06T12:43:26.415Z,29.30
2022-09-06T12:45:53.217Z,29.30
2022-09-06T12:48:33.439Z,29.40
2022-09-06T12:51:19.467Z,29.60
2022-09-06T12:53:54.186Z,29.20
2022-09-06T12:56:23.391Z,29.00
2022-09-06T12:58:50.243Z,29.40
2022-09-06T13:01:25.576Z,30.10
2022-09-06T13:04:02.788Z,30.80
2022-09-06T13:06:32.787Z,31.30
2022-09-06T13:09:00.903Z,31.70
2022-09-06T13:11:36.369Z,32.10
2022-09-06T13:14:17.160Z,32.60
2022-09-06T13:16:47.249Z,33.00
2022-09-06T13:19:16.103Z,33.40
2022-09-06T13:21:44.697Z,33.60
2022-09-06T13:24:27.050Z,33.70
2022-09-06T13:26:54.102Z,33.80
2022-09-06T13:29:26.042Z,33.80
2022-09-06T13:31:54.978Z,33.90
2022-09-06T13:34:30.686Z,33.90
2022-09-06T13:37:06.587Z,33.80
2022-09-06T13:39:41.496Z,33.80
2022-09-06T13:42:10.833Z,34.00
2022-09-06T13:44:38.997Z,34.10
2022-09-06T13:47:06.335Z,34.00
2022-09-06T13:49:33.918Z,33.90
2022-09-06T13:52:03.045Z,34.00
2022-09-06T13:54:30.764Z,34.20
2022-09-06T13:56:57.884Z,34.40
2022-09-06T13:59:25.307Z,34.50
2022-09-06T14:02:02.026Z,34.60
2022-09-06T14:04:29.024Z,34.60
2022-09-06T14:06:55.962Z,34.50
2022-09-06T14:09:22.840Z,34.20
2022-09-06T14:11:49.664Z,34.00
2022-09-06T14:14:17.887Z,33.70
2022-09-06T14:16:46.083Z,33.40
2022-09-06T14:19:13.161Z,33.20
2022-09-06T14:21:40.353Z,33.20
2022-09-06T14:24:07.381Z,33.20
2022-09-06T14:26:35.792Z,33.20
2022-09-06T14:29:03.309Z,33.20
2022-09-06T14:31:32.474Z,33.20
2022-09-06T14:34:00.720Z,33.10
2022-09-06T14:36:30.375Z,32.80
2022-09-06T14:38:59.039Z,32.70
2022-09-06T14:41:26.417Z,32.70
2022-09-06T14:43:55.292Z,32.20
2022-09-06T14:46:24.164Z,31.20
2022-09-06T14:48:59.567Z,30.30
2022-09-06T14:51:26.707Z,29.70
2022-09-06T14:53:57.865Z,29.00
2022-09-06T14:56:26.570Z,28.40
2022-09-06T14:58:57.188Z,27.80
2022-09-06T15:01:28.565Z,27.30
2022-09-06T15:04:01.738Z,26.90
2022-09-06T15:06:29.985Z,26.60
2022-09-06T15:08:59.583Z,26.30
2022-09-06T15:11:55.883Z,26.00
2022-09-06T15:14:25.345Z,25.50
2022-09-06T15:16:56.503Z,25.40
2022-09-06T15:19:25.214Z,25.40
2022-09-06T15:21:52.184Z,25.60
2022-09-06T15:24:19.443Z,25.80
2022-09-06T15:26:47.221Z,26.00
2022-09-06T15:29:15.335Z,26.00
2022-09-06T15:31:42.978Z,25.90
2022-09-06T15:34:10.465Z,25.80
2022-09-06T15:36:37.988Z,25.90
2022-09-06T15:39:06.100Z,25.90
2022-09-06T15:41:35.603Z,25.80
2022-09-06T15:44:10.566Z,25.50
2022-09-06T15:46:43.849Z,25.30
2022-09-06T15:49:15.622Z,25.10
2022-09-06T15:51:42.807Z,24.90
2022-09-06T15:54:11.544Z,24.70
2022-09-06T15:56:38.633Z,24.60
2022-09-06T15:59:05.982Z,24.50
2022-09-06T16:01:36.204Z,24.60
2022-09-06T16:04:05.949Z,24.60
2022-09-06T16:06:44.368Z,24.70
2022-09-06T16:09:14.309Z,24.70
2022-09-06T16:11:41.871Z,24.70
2022-09-06T16:14:11.930Z,24.70
2022-09-06T16:16:40.384Z,24.60
2022-09-06T16:19:08.254Z,24.50
2022-09-06T16:21:37.902Z,24.40
2022-09-06T16:24:07.082Z,24.20
2022-09-06T16:26:36.876Z,24.10
2022-09-06T16:29:05.774Z,24.00
2022-09-06T16:31:39.972Z,23.90
2022-09-06T16:34:08.404Z,23.80
2022-09-06T16:36:35.614Z,23.70
2022-09-06T16:39:02.615Z,23.60
2022-09-06T16:41:44.174Z,23.50
2022-09-06T16:44:16.321Z,23.40
2022-09-06T16:46:46.037Z,23.30
2022-09-06T16:49:13.178Z,23.20
2022-09-06T16:51:39.910Z,23.10
2022-09-06T16:54:06.854Z,23.10
2022-09-06T16:56:35.901Z,23.00
2022-09-06T16:59:05.562Z,22.90
2022-09-06T17:01:34.920Z,22.90
2022-09-06T17:04:02.515Z,22.80
2022-09-06T17:06:30.435Z,22.80
2022-09-06T17:09:01.029Z,22.70
2022-09-06T17:11:28.867Z,22.60
2022-09-06T17:13:56.842Z,22.50
2022-09-06T17:16:42.727Z,22.40
2022-09-06T17:19:10.489Z,22.20
2022-09-06T17:21:39.198Z,22.10
2022-09-06T17:24:07.267Z,22.00
2022-09-06T17:26:35.918Z,21.90
2022-09-06T17:29:03.726Z,21.80
2022-09-06T17:31:30.631Z,21.70
2022-09-06T17:33:59.574Z,21.70
2022-09-06T17:36:30.361Z,21.60
2022-09-06T17:39:03.274Z,21.50
2022-09-06T17:41:37.800Z,21.40
2022-09-06T17:44:07.744Z,21.30
2022-09-06T17:46:34.440Z,21.20
2022-09-06T17:49:01.292Z,21.20
2022-09-06T17:51:28.119Z,21.10
2022-09-06T17:53:54.825Z,21.00
2022-09-06T17:56:21.816Z,20.90
2022-09-06T17:58:59.401Z,20.90
2022-09-06T18:01:32.151Z,20.70
2022-09-06T18:03:59.603Z,20.60
2022-09-06T18:06:29.351Z,20.60
2022-09-06T18:08:59.520Z,20.50
2022-09-06T18:11:28.840Z,20.40
2022-09-06T18:14:01.336Z,20.40
2022-09-06T18:16:29.577Z,20.30
2022-09-06T18:18:58.740Z,20.20
2022-09-06T18:21:26.934Z,20.20
2022-09-06T18:23:55.263Z,20.10
2022-09-06T18:26:22.839Z,20.00
2022-09-06T18:28:50.152Z,20.00
2022-09-06T18:31:19.842Z,19.90
2022-09-06T18:33:46.755Z,19.90
2022-09-06T18:36:18.062Z,19.90
2022-09-06T18:38:45.297Z,19.80
2022-09-06T18:41:34.726Z,19.80
2022-09-06T18:44:03.202Z,19.80
2022-09-06T18:46:31.867Z,19.70
2022-09-06T18:48:58.903Z,19.70
2022-09-06T18:51:26.036Z,19.60
2022-09-06T18:53:52.896Z,19.60
2022-09-06T18:56:19.986Z,19.60
2022-09-06T18:58:46.836Z,19.50
2022-09-06T19:01:16.262Z,19.50
2022-09-06T19:03:43.886Z,19.60
2022-09-06T19:06:19.263Z,19.50
2022-09-06T19:08:47.392Z,19.50
2022-09-06T19:11:16.985Z,19.40
2022-09-06T19:13:45.572Z,19.40
2022-09-06T19:16:14.177Z,19.40
2022-09-06T19:18:41.930Z,19.40
2022-09-06T19:21:17.566Z,19.30
2022-09-06T19:23:47.104Z,19.30
2022-09-06T19:26:19.627Z,19.20
2022-09-06T19:28:58.531Z,19.20
2022-09-06T19:31:27.733Z,19.10
2022-09-06T19:33:55.651Z,19.00
2022-09-06T19:36:23.967Z,19.00
2022-09-06T19:39:14.465Z,18.90
2022-09-06T19:41:44.988Z,18.90
2022-09-06T19:44:12.748Z,18.90
2022-09-06T19:46:45.438Z,18.80
2022-09-06T19:49:23.205Z,18.80
2022-09-06T19:51:51.523Z,18.80
2022-09-06T19:54:18.872Z,18.80
2022-09-06T19:56:46.171Z,18.80
2022-09-06T19:59:14.350Z,18.70
2022-09-06T20:01:43.344Z,18.70
2022-09-06T20:04:11.266Z,18.70
2022-09-06T20:06:38.525Z,18.70
2022-09-06T20:09:07.408Z,18.70
2022-09-06T20:11:36.133Z,18.70
2022-09-06T20:14:03.141Z,18.60
2022-09-06T20:16:30.546Z,18.60
2022-09-06T20:19:01.491Z,18.50
2022-09-06T20:21:29.697Z,18.60
2022-09-06T20:23:59.113Z,18.50
2022-09-06T20:26:28.565Z,18.40
2022-09-06T20:28:56.685Z,18.40
2022-09-06T20:31:25.356Z,18.40
2022-09-06T20:33:52.162Z,18.30
2022-09-06T20:36:19.352Z,18.30
2022-09-06T20:38:47.209Z,18.20
2022-09-06T20:41:19.305Z,18.20
2022-09-06T20:43:50.285Z,18.10
2022-09-06T20:46:19.330Z,18.10
2022-09-06T20:48:46.796Z,18.10
2022-09-06T20:51:19.431Z,18.00
2022-09-06T20:54:00.657Z,18.00
2022-09-06T20:56:36.547Z,18.00
2022-09-06T20:59:06.154Z,18.00
2022-09-06T21:01:36.651Z,18.00
2022-09-06T21:04:06.317Z,18.00
2022-09-06T21:06:35.741Z,18.00
2022-09-06T21:09:04.761Z,18.00
2022-09-06T21:11:33.183Z,17.90
2022-09-06T21:14:00.297Z,18.00
2022-09-06T21:16:31.193Z,18.00
2022-09-06T21:19:02.639Z,18.00
2022-09-06T21:21:31.221Z,17.90
2022-09-06T21:24:00.733Z,17.90
2022-09-06T21:26:27.867Z,17.90
2022-09-06T21:28:54.811Z,17.90
2022-09-06T21:31:27.771Z,18.00
2022-09-06T21:33:57.318Z,17.90
2022-09-06T21:36:33.189Z,17.90
2022-09-06T21:39:06.650Z,17.80
2022-09-06T21:41:36.614Z,17.80
2022-09-06T21:44:05.286Z,17.80
2022-09-06T21:46:34.916Z,17.70
2022-09-06T21:49:04.509Z,17.70
2022-09-06T21:51:31.563Z,17.60
2022-09-06T21:53:59.143Z,17.60
2022-09-06T21:56:26.570Z,17.60
2022-09-06T21:58:57.958Z,17.60
2022-09-06T22:01:26.781Z,17.60
2022-09-06T22:03:53.834Z,17.50
2022-09-06T22:06:23.475Z,17.50
2022-09-06T22:08:50.558Z,17.50
2022-09-06T22:11:25.121Z,17.40
2022-09-06T22:13:52.645Z,17.40
2022-09-06T22:16:21.616Z,17.30
2022-09-06T22:18:49.382Z,17.30
2022-09-06T22:21:20.100Z,17.30
2022-09-06T22:24:08.188Z,17.20
2022-09-06T22:26:36.886Z,17.20
2022-09-06T22:29:06.065Z,17.20
2022-09-06T22:31:34.617Z,17.20
2022-09-06T22:34:01.694Z,17.20
2022-09-06T22:36:28.716Z,17.10
2022-09-06T22:38:59.039Z,17.10
2022-09-06T22:41:28.543Z,17.10
2022-09-06T22:43:56.517Z,17.10
2022-09-06T22:46:23.478Z,17.10
2022-09-06T22:48:50.403Z,17.10
2022-09-06T22:51:17.163Z,17.10
2022-09-06T22:53:45.293Z,17.10
2022-09-06T22:56:12.167Z,17.00
2022-09-06T22:58:40.191Z,17.00
2022-09-06T23:01:15.197Z,17.00
2022-09-06T23:03:42.297Z,16.90
2022-09-06T23:06:09.720Z,16.90
2022-09-06T23:08:38.452Z,16.90
2022-09-06T23:11:15.584Z,16.90
2022-09-06T23:13:46.103Z,16.90
2022-09-06T23:16:19.411Z,16.80
2022-09-06T23:18:47.201Z,16.80
2022-09-06T23:21:17.745Z,16.70
2022-09-06T23:23:44.685Z,16.70
2022-09-06T23:26:14.122Z,16.70
2022-09-06T23:28:41.298Z,16.70
2022-09-06T23:31:10.661Z,16.60
2022-09-06T23:33:37.974Z,16.60
2022-09-06T23:36:05.688Z,16.60
2022-09-06T23:38:37.113Z,16.60
2022-09-06T23:41:04.871Z,16.50
2022-09-06T23:43:31.952Z,16.50
2022-09-06T23:45:58.889Z,16.50
2022-09-06T23:48:26.195Z,16.50
2022-09-06T23:50:52.970Z,16.50
2022-09-06T23:53:19.738Z,16.40
2022-09-06T23:55:46.560Z,16.40
2022-09-06T23:58:13.718Z,16.40
